Time;durP1;ratioP1;P1;durP2;ratioP2;P2;SDS_P1;SDS_P2;PMS_P1;PMS_P2;Temp;Humidity;BMP_temperature;BMP_pressure;BME280_temperature;BME280_humidity;BME280_pressure;Samples;Min_cycle;Max_cycle;Signal;HPM_P1;HPM_P2
2021/04/28 00:02:09;;;;;;;3.55;3.35;;;;;;;11.46;58.73;99346.66;6168376;23;20005;-79
2021/04/28 00:04:34;;;;;;;4.30;4.10;;;;;;;11.48;59.05;99339.00;6165226;23;20486;-78
2021/04/28 00:07:03;;;;;;;4.38;4.07;;;;;;;11.48;59.09;99339.00;6167958;23;20001;-78
2021/04/28 00:09:30;;;;;;;5.00;4.70;;;;;;;11.44;58.81;99322.34;6189412;23;20009;-76
2021/04/28 00:12:02;;;;;;;4.45;4.22;;;;;;;11.55;59.00;99338.59;6165404;23;20016;-78
2021/04/28 00:14:28;;;;;;;5.20;4.80;;;;;;;11.39;59.06;99299.69;6160823;23;20717;-78
2021/04/28 00:16:53;;;;;;;6.35;5.72;;;;;;;11.44;59.11;99316.06;6166789;23;20034;-77
2021/04/28 00:19:19;;;;;;;5.03;4.82;;;;;;;11.49;59.28;99329.66;6139692;23;20036;-77
2021/04/28 00:21:45;;;;;;;6.13;4.93;;;;;;;11.39;59.57;99325.16;6165167;23;20375;-78
2021/04/28 00:24:12;;;;;;;4.78;4.47;;;;;;;11.41;59.57;99341.28;6166587;23;20382;-78
2021/04/28 00:26:41;;;;;;;6.68;5.90;;;;;;;11.29;59.89;99334.34;6191920;23;20016;-77
2021/04/28 00:29:06;;;;;;;8.45;7.63;;;;;;;11.27;59.61;99336.59;6168619;23;20037;-77
2021/04/28 00:31:35;;;;;;;7.75;7.25;;;;;;;11.31;60.05;99334.06;6113311;23;20266;-78
2021/04/28 00:34:00;;;;;;;9.38;7.40;;;;;;;11.30;60.74;99335.16;6170166;23;20005;-78
2021/04/28 00:36:27;;;;;;;7.50;6.75;;;;;;;11.30;60.26;99327.78;6166723;23;20071;-79
2021/04/28 00:39:21;;;;;;;8.02;7.25;;;;;;;11.26;59.88;99325.94;6169351;23;20119;-77
2021/04/28 00:41:46;;;;;;;4.68;4.38;;;;;;;11.22;60.28;99320.22;6169705;23;20009;-80
2021/04/28 00:44:12;;;;;;;5.43;5.07;;;;;;;11.16;60.04;99316.75;6115727;23;20009;-76
2021/04/28 00:46:40;;;;;;;4.10;3.90;;;;;;;11.15;60.17;99308.84;6169573;23;20072;-77
2021/04/28 00:49:05;;;;;;;5.65;4.20;;;;;;;11.21;60.29;99324.06;6168082;23;20335;-75
2021/04/28 00:51:30;;;;;;;4.60;4.30;;;;;;;11.15;60.15;99315.13;6190715;23;20028;-76
2021/04/28 00:53:56;;;;;;;4.60;4.35;;;;;;;11.14;60.15;99320.88;6167733;23;20309;-77
2021/04/28 00:56:24;;;;;;;4.72;4.43;;;;;;;11.12;60.46;99309.44;6166686;23;20043;-77
2021/04/28 00:59:00;;;;;;;6.43;5.85;;;;;;;11.07;60.41;99293.91;6194478;23;20336;-76
2021/04/28 01:01:33;;;;;;;10.20;9.05;;;;;;;11.20;60.46;99311.50;6193428;23;19997;-77
2021/04/28 01:04:24;;;;;;;;;;;;;;;;;;;;;
2021/04/28 01:06:52;;;;;;;12.93;9.30;;;;;;;10.89;60.84;99268.19;6201430;23;20023;-81
2021/04/28 01:09:38;;;;;;;;;;;;;;;;;;;;;
2021/04/28 01:12:04;;;;;;;9.70;8.75;;;;;;;10.91;61.05;99282.38;6178076;23;20040;-77
2021/04/28 01:14:31;;;;;;;8.90;8.07;;;;;;;10.79;61.34;99257.41;6170350;23;20001;-75
2021/04/28 01:17:10;;;;;;;;;;;;;;;;;;;;;
2021/04/28 01:19:43;;;;;;;10.52;9.57;;;;;;;10.65;61.91;99247.19;6196930;23;20020;-78
2021/04/28 01:22:20;;;;;;;15.90;10.05;;;;;;;10.81;62.44;99279.81;6169579;23;20008;-79
2021/04/28 01:24:46;;;;;;;11.85;10.63;;;;;;;10.73;62.23;99273.09;6169147;23;20013;-78
2021/04/28 01:27:24;;;;;;;16.48;11.20;;;;;;;10.75;63.22;99272.78;6198003;23;20011;-78
2021/04/28 01:29:50;;;;;;;13.07;9.55;;;;;;;10.62;62.85;99264.19;6197701;23;20083;-79
2021/04/28 01:32:24;;;;;;;13.00;9.77;;;;;;;10.63;63.28;99263.09;6146990;23;20009;-78
2021/04/28 01:34:57;;;;;;;11.90;10.65;;;;;;;10.58;63.87;99271.34;6172718;23;20013;-78
2021/04/28 01:37:25;;;;;;;10.50;9.43;;;;;;;10.48;63.67;99268.75;6171932;23;20005;-78
2021/04/28 01:39:54;;;;;;;10.68;9.68;;;;;;;10.44;63.76;99268.53;6168609;23;20009;-77
2021/04/28 01:42:20;;;;;;;7.55;6.85;;;;;;;10.46;62.94;99281.91;6144805;23;20008;-75
2021/04/28 01:44:55;;;;;;;6.03;5.72;;;;;;;10.33;63.01;99274.41;6168609;23;20012;-76
2021/04/28 01:47:48;;;;;;;7.78;6.95;;;;;;;10.35;63.38;99283.94;6169356;23;20299;-76
2021/04/28 01:50:23;;;;;;;5.45;5.05;;;;;;;10.26;62.90;99278.28;6162692;23;20004;-76
2021/04/28 01:52:52;;;;;;;4.40;4.20;;;;;;;10.22;62.70;99274.53;6167561;23;20024;-76
2021/04/28 01:55:35;;;;;;;5.20;4.82;;;;;;;10.23;62.89;99257.00;6167733;23;20031;-77
2021/04/28 01:58:09;;;;;;;7.20;6.57;;;;;;;10.23;63.01;99248.00;6170168;23;20064;-77
2021/04/28 02:00:45;;;;;;;6.18;5.75;;;;;;;10.44;62.77;99281.38;6168547;23;20007;-78
2021/04/28 02:06:13;;;;;;;14.18;8.88;;;;;;;10.35;62.87;99264.81;6191980;23;20081;-78
2021/04/28 02:09:11;;;;;;;;;;;;;;;;;;;;;
2021/04/28 02:12:17;;;;;;;;;;;;;;;;;;;;;
2021/04/28 02:14:41;;;;;;;8.73;7.90;;;;;;;9.99;62.90;99237.09;6190483;23;20331;-77
2021/04/28 02:17:18;;;;;;;;;;;;;;;;;;;;;
2021/04/28 02:19:47;;;;;;;19.48;10.85;;;;;;;9.99;63.45;99258.94;6195854;23;20376;-76
2021/04/28 02:23:05;;;;;;;14.02;10.13;;;;;;;9.94;63.06;99255.19;6164627;23;20015;-77
2021/04/28 02:25:53;;;;;;;;;;;;;;;;;;;;;
2021/04/28 02:28:27;;;;;;;14.02;9.85;;;;;;;9.79;63.38;99241.69;6189679;23;20020;-76
2021/04/28 02:31:52;;;;;;;;;;;;;;;;;;;;;
2021/04/28 02:34:50;;;;;;;10.65;9.18;;;;;;;9.82;64.13;99245.78;6167864;23;20032;-77
2021/04/28 02:37:33;;;;;;;16.00;11.82;;;;;;;9.77;64.27;99233.78;6163608;23;20036;-78
2021/04/28 02:40:07;;;;;;;13.38;11.25;;;;;;;9.75;63.54;99240.63;6166288;23;20323;-77
2021/04/28 02:42:53;;;;;;;;;;;;;;;;;;;;;
2021/04/28 02:52:26;;;;;;;11.68;10.57;;;;;;;9.75;64.44;99254.28;6165714;23;20036;-76
2021/04/28 02:55:12;;;;;;;;;;;;;;;;;;;;;
2021/04/28 02:58:01;;;;;;;;;;;;;;;;;;;;;
2021/04/28 03:00:29;;;;;;;13.82;10.25;;;;;;;9.57;64.68;99243.00;6197583;23;20031;-77
2021/04/28 03:06:01;;;;;;;13.52;9.95;;;;;;;9.58;64.22;99247.38;6168279;23;20029;-75
2021/04/28 03:08:37;;;;;;;12.15;10.23;;;;;;;9.70;65.10;99270.75;6162638;23;20107;-76
2021/04/28 03:11:26;;;;;;;9.85;8.98;;;;;;;9.67;65.32;99280.31;6166040;23;20009;-74
2021/04/28 03:14:00;;;;;;;11.85;9.45;;;;;;;9.55;65.07;99267.06;6164992;23;20083;-77
2021/04/28 03:16:36;;;;;;;;;;;;;;;;;;;;;
2021/04/28 03:19:08;;;;;;;10.55;8.70;;;;;;;9.47;65.19;99256.75;6191661;23;20028;-76
2021/04/28 03:22:00;;;;;;;9.77;8.23;;;;;;;9.50;65.53;99266.28;6167701;23;20021;-76
2021/04/28 03:24:28;;;;;;;9.55;8.27;;;;;;;9.29;65.16;99243.81;6161693;23;21058;-76
2021/04/28 03:27:08;;;;;;;17.48;8.20;;;;;;;9.43;65.29;99266.59;6167612;23;20012;-76
2021/04/28 03:29:34;;;;;;;9.98;9.00;;;;;;;9.44;66.03;99268.25;6165360;23;20104;-76
2021/04/28 03:32:02;;;;;;;10.27;9.30;;;;;;;9.31;66.06;99247.88;6195229;23;20065;-75
2021/04/28 03:34:28;;;;;;;10.45;9.40;;;;;;;9.26;65.45;99245.22;6169026;23;20050;-75
2021/04/28 03:36:53;;;;;;;11.63;10.40;;;;;;;9.27;65.52;99260.47;6170467;23;20403;-76
2021/04/28 03:39:27;;;;;;;13.32;10.18;;;;;;;9.24;66.09;99259.16;6170457;23;20001;-76
2021/04/28 03:41:53;;;;;;;11.07;10.02;;;;;;;9.16;66.62;99245.31;6168150;23;20491;-77
2021/04/28 03:46:07;;;;;;;;;;;;;;;;;;;;;
2021/04/28 03:48:38;;;;;;;12.80;9.70;;;;;;;9.08;65.62;99261.19;6106284;23;20016;-78
2021/04/28 03:55:04;;;;;;;;;;;;;;;;;;;;;
2021/04/28 03:58:01;;;;;;;9.80;7.13;;;;;;;8.70;66.61;99232.81;6026935;23;20055;-77
2021/04/28 04:04:06;;;;;;;7.03;6.43;;;;;;;8.62;66.09;99227.97;5956014;23;20019;-75
2021/04/28 04:06:35;;;;;;;8.18;7.38;;;;;;;8.64;65.98;99229.28;6161131;23;20005;-74
2021/04/28 04:09:04;;;;;;;8.25;7.70;;;;;;;8.56;66.69;99222.53;6159148;23;20035;-73
2021/04/28 04:11:30;;;;;;;8.13;7.50;;;;;;;8.73;66.87;99259.50;6187069;23;20005;-74
2021/04/28 04:13:55;;;;;;;6.47;5.97;;;;;;;8.66;66.82;99259.81;6187596;23;20055;-74
2021/04/28 04:16:20;;;;;;;5.55;5.15;;;;;;;8.61;65.98;99256.31;6162527;23;20013;-74
2021/04/28 04:18:46;;;;;;;5.28;4.85;;;;;;;8.41;66.04;99236.22;6180844;23;20016;-75
2021/04/28 04:21:14;;;;;;;4.95;4.45;;;;;;;8.48;66.28;99255.81;6187419;23;19996;-74
2021/04/28 04:23:39;;;;;;;3.95;3.75;;;;;;;8.41;66.53;99252.59;6190511;23;20412;-74
2021/04/28 04:26:15;;;;;;;3.13;3.03;;;;;;;8.18;66.09;99221.38;6137228;23;20039;-74
2021/04/28 04:28:41;;;;;;;3.97;3.03;;;;;;;8.19;66.22;99229.25;6164717;23;20082;-75
2021/04/28 04:31:14;;;;;;;3.17;2.97;;;;;;;8.26;65.84;99249.91;6138961;23;20476;-75
2021/04/28 04:33:42;;;;;;;3.40;3.20;;;;;;;8.00;66.33;99214.63;6163026;23;20001;-75
2021/04/28 04:36:08;;;;;;;3.85;3.65;;;;;;;8.18;66.27;99246.69;6166227;23;20005;-75
2021/04/28 04:38:38;;;;;;;4.70;4.38;;;;;;;8.20;66.36;99247.19;6164942;23;20012;-75
2021/04/28 04:41:03;;;;;;;3.95;3.75;;;;;;;8.07;66.28;99230.66;6190802;23;20010;-76
2021/04/28 04:43:39;;;;;;;5.75;5.25;;;;;;;8.20;65.44;99249.94;6194351;23;20080;-78
2021/04/28 04:46:04;;;;;;;;;;;;;;;8.17;65.10;99249.69;6115802;23;20040;-75
2021/04/28 04:48:29;;;;;;;4.93;4.53;;;;;;;8.07;65.07;99249.72;6165823;23;19908;-75
2021/04/28 04:55:41;;;;;;;5.55;5.05;;;;;;;7.66;64.81;99204.41;6187939;23;20017;-77
2021/04/28 04:57:40;;;;;;;6.57;6.00;;;;;;;7.82;64.33;99246.78;6175671;23;20455;-73
2021/04/28 05:00:06;;;;;;;7.53;6.80;;;;;;;7.79;64.50;99244.63;6159122;23;20087;-73
2021/04/28 05:02:32;;;;;;;8.65;8.05;;;;;;;7.77;64.88;99246.00;6188013;23;19997;-72
2021/04/28 05:04:58;;;;;;;8.45;7.68;;;;;;;7.71;64.62;99237.06;6160131;23;20079;-71
2021/04/28 05:07:23;;;;;;;10.98;8.75;;;;;;;7.69;63.46;99250.09;6161281;23;20040;-71
2021/04/28 05:09:50;;;;;;;9.38;8.65;;;;;;;7.64;64.06;99244.69;6189038;23;20032;-72
2021/04/28 05:12:20;;;;;;;8.63;7.88;;;;;;;7.48;63.92;99231.09;6156944;23;19997;-76
2021/04/28 05:14:50;;;;;;;7.65;7.13;;;;;;;7.54;63.81;99240.06;6161079;23;20005;-75
2021/04/28 05:17:15;;;;;;;11.07;9.57;;;;;;;7.36;64.54;99225.16;6165412;23;20435;-76
2021/04/28 05:19:41;;;;;;;12.18;9.05;;;;;;;7.36;64.97;99232.47;6167207;23;19997;-74
2021/04/28 05:22:07;;;;;;;9.55;8.57;;;;;;;7.37;64.82;99243.06;6141230;23;20021;-75
2021/04/28 05:24:37;;;;;;;8.50;7.75;;;;;;;7.29;64.93;99243.66;6164439;23;20005;-76
2021/04/28 05:27:14;;;;;;;9.73;8.77;;;;;;;7.26;65.71;99242.28;6135971;23;20013;-75
2021/04/28 05:29:40;;;;;;;9.20;8.38;;;;;;;7.07;65.59;99220.25;6140762;23;20059;-73
2021/04/28 05:32:06;;;;;;;14.95;10.77;;;;;;;7.09;65.28;99220.78;6141757;23;20053;-75
2021/04/28 05:34:58;;;;;;;;;;;;;;;;;;;;;
2021/04/28 05:37:34;;;;;;;;;;;;;;;;;;;;;
2021/04/28 05:40:37;;;;;;;;;;;;;;;;;;;;;
2021/04/28 05:42:54;;;;;;;10.13;9.15;;;;;;;6.94;65.86;99189.00;6187808;23;20008;-73
2021/04/28 05:45:20;;;;;;;13.65;10.75;;;;;;;7.07;66.49;99197.72;6165663;23;20450;-75
2021/04/28 05:47:53;;;;;;;12.18;10.13;;;;;;;7.31;66.48;99225.13;6167192;23;20009;-75
2021/04/28 05:50:48;;;;;;;11.90;9.95;;;;;;;7.42;66.53;99234.91;6166946;23;20435;-75
2021/04/28 05:53:21;;;;;;;9.43;8.55;;;;;;;7.56;66.54;99223.47;6165513;23;20002;-74
2021/04/28 05:55:46;;;;;;;11.65;9.80;;;;;;;7.58;65.75;99210.41;6190939;23;20020;-74
2021/04/28 05:58:12;;;;;;;11.40;10.07;;;;;;;7.70;65.61;99205.47;6168359;23;20005;-73
2021/04/28 06:00:40;;;;;;;10.02;9.13;;;;;;;7.83;65.57;99215.78;6192541;23;20012;-76
2021/04/28 06:03:05;;;;;;;11.85;9.40;;;;;;;8.08;65.36;99227.66;6197215;23;20001;-73
2021/04/28 06:05:33;;;;;;;8.90;8.13;;;;;;;8.25;65.03;99221.03;6169496;23;20039;-75
2021/04/28 06:07:59;;;;;;;8.98;8.23;;;;;;;8.39;64.83;99206.53;6165467;23;20024;-74
2021/04/28 06:10:27;;;;;;;8.27;7.57;;;;;;;8.55;64.36;99188.19;6140380;23;20009;-74
2021/04/28 06:13:10;;;;;;;;;;;;;;;;;;;;;
2021/04/28 06:16:06;;;;;;;12.95;9.07;;;;;;;9.08;63.60;99201.19;6167966;23;20037;-75
2021/04/28 06:18:23;;;;;;;10.23;9.23;;;;;;;9.23;62.39;99188.50;6182023;23;20005;-74
2021/04/28 06:20:49;;;;;;;8.75;8.20;;;;;;;9.46;62.06;99206.00;6166400;23;20004;-75
2021/04/28 06:23:14;;;;;;;10.95;9.88;;;;;;;9.64;61.12;99222.72;6161918;23;20036;-75
2021/04/28 06:25:42;;;;;;;10.00;9.20;;;;;;;9.57;60.25;99188.41;6141159;23;20012;-75
2021/04/28 06:28:08;;;;;;;9.40;8.63;;;;;;;9.64;59.94;99195.44;6164102;23;20424;-74
2021/04/28 06:30:34;;;;;;;8.30;7.60;;;;;;;9.74;60.81;99189.91;6166086;23;20056;-77
2021/04/28 06:33:00;;;;;;;7.03;6.60;;;;;;;9.91;61.02;99206.59;6168344;23;20020;-77
2021/04/28 06:35:28;;;;;;;6.93;6.30;;;;;;;10.06;60.34;99218.44;6189876;23;20015;-75
2021/04/28 06:37:53;;;;;;;7.57;6.97;;;;;;;10.16;60.54;99210.13;6165736;23;20080;-72
2021/04/28 06:40:24;;;;;;;6.05;5.60;;;;;;;10.28;59.27;99215.97;6186187;23;20005;-73
2021/04/28 06:42:50;;;;;;;6.38;6.07;;;;;;;10.30;59.18;99202.81;6189309;23;20001;-77
2021/04/28 06:45:16;;;;;;;7.85;7.13;;;;;;;10.39;58.56;99202.22;6164663;23;20033;-75
2021/04/28 06:47:43;;;;;;;6.80;6.20;;;;;;;10.46;58.48;99205.38;6161854;23;20013;-74
2021/04/28 06:50:10;;;;;;;7.15;6.65;;;;;;;10.60;58.79;99219.13;6190642;23;20012;-76
2021/04/28 06:52:36;;;;;;;5.70;5.35;;;;;;;10.63;58.89;99210.31;6161807;23;20004;-78
2021/04/28 06:55:03;;;;;;;6.85;6.35;;;;;;;10.68;58.50;99206.72;6165244;23;20011;-76
2021/04/28 06:57:32;;;;;;;6.13;5.72;;;;;;;10.83;57.86;99214.69;6165242;23;20074;-75
2021/04/28 07:00:07;;;;;;;;;;;;;;;;;;;;;
2021/04/28 07:02:33;;;;;;;7.38;6.68;;;;;;;10.84;57.11;99221.78;6163250;23;20020;-76
2021/04/28 07:05:17;;;;;;;7.57;5.72;;;;;;;10.92;57.61;99229.31;6162745;23;20513;-76
2021/04/28 07:07:42;;;;;;;7.15;6.53;;;;;;;11.06;57.53;99243.03;6190232;23;20005;-76
2021/04/28 07:10:09;;;;;;;7.43;6.82;;;;;;;11.05;56.74;99221.47;6165580;23;19992;-77
2021/04/28 07:12:34;;;;;;;6.70;6.22;;;;;;;11.24;56.93;99229.63;6165942;23;20009;-81
2021/04/28 07:15:00;;;;;;;5.88;5.38;;;;;;;11.26;56.53;99198.13;6147279;23;20058;-77
2021/04/28 07:17:25;;;;;;;7.35;6.82;;;;;;;11.32;56.74;99199.66;6164583;23;20009;-77
2021/04/28 07:19:52;;;;;;;8.27;7.47;;;;;;;11.48;56.20;99218.53;6169534;23;20032;-71
2021/04/28 07:22:18;;;;;;;7.13;6.63;;;;;;;11.46;55.86;99205.16;6170307;23;20005;-77
2021/04/28 07:24:55;;;;;;;9.32;8.48;;;;;;;11.46;55.59;99193.38;6145262;23;20027;-77
2021/04/28 07:27:21;;;;;;;7.88;7.38;;;;;;;11.58;55.65;99215.63;6198837;23;20001;-78
2021/04/28 07:29:49;;;;;;;6.82;6.15;;;;;;;11.66;56.29;99206.69;6122594;23;20020;-77
2021/04/28 07:32:16;;;;;;;7.53;6.78;;;;;;;11.82;55.59;99218.16;6195028;23;20379;-77
2021/04/28 07:34:47;;;;;;;9.30;7.70;;;;;;;11.87;55.74;99187.94;6169579;23;20035;-78
2021/04/28 07:37:13;;;;;;;6.72;6.25;;;;;;;12.09;54.72;99199.31;6189720;23;20004;-80
2021/04/28 07:39:45;;;;;;;8.10;7.35;;;;;;;12.15;54.98;99192.59;6195183;23;20560;-78
2021/04/28 07:42:11;;;;;;;10.50;7.25;;;;;;;12.35;53.96;99214.13;6168870;23;20400;-78
2021/04/28 07:44:44;;;;;;;7.13;6.57;;;;;;;12.28;54.15;99190.97;6195487;23;20016;-77
2021/04/28 07:47:09;;;;;;;9.18;8.13;;;;;;;12.31;54.20;99182.94;6171658;23;20085;-77
2021/04/28 07:49:42;;;;;;;8.70;6.50;;;;;;;12.55;53.96;99187.34;6191855;23;20012;-76
2021/04/28 07:52:15;;;;;;;7.03;6.65;;;;;;;12.72;53.46;99192.97;6170717;23;20372;-77
2021/04/28 07:54:51;;;;;;;;;;;;;;;;;;;;;
2021/04/28 07:57:22;;;;;;;9.10;8.25;;;;;;;13.28;52.95;99218.22;6167435;23;20051;-76
2021/04/28 07:59:58;;;;;;;7.75;7.22;;;;;;;13.32;52.56;99188.22;6166966;23;20052;-76
2021/04/28 08:02:31;;;;;;;8.50;7.80;;;;;;;13.51;52.28;99198.22;6144270;23;19997;-77
2021/04/28 08:04:57;;;;;;;8.63;7.57;;;;;;;13.76;51.59;99211.22;6193772;23;20001;-76
2021/04/28 08:07:25;;;;;;;8.85;8.15;;;;;;;13.91;51.47;99222.94;6143502;23;20016;-77
2021/04/28 08:09:53;;;;;;;18.15;7.90;;;;;;;14.02;51.23;99218.78;6168811;23;20001;-76
2021/04/28 08:12:21;;;;;;;11.02;8.52;;;;;;;14.05;50.21;99209.88;6166525;23;20037;-77
2021/04/28 08:14:56;;;;;;;10.18;9.27;;;;;;;14.06;50.37;99214.25;6143166;23;20005;-75
2021/04/28 08:17:29;;;;;;;9.40;8.50;;;;;;;14.11;50.11;99216.84;6190559;23;20005;-75
2021/04/28 08:20:06;;;;;;;;;;;;;;;;;;;;;
2021/04/28 08:22:43;;;;;;;;;;;;;;;;;;;;;
2021/04/28 08:25:22;;;;;;;7.22;6.60;;;;;;;14.30;49.87;99186.31;6191935;23;20012;-76
2021/04/28 08:28:09;;;;;;;7.30;6.53;;;;;;;14.83;49.52;99235.94;6194626;23;20032;-78
2021/04/28 08:30:35;;;;;;;6.97;6.35;;;;;;;14.96;48.65;99228.66;6192391;23;20017;-77
2021/04/28 08:33:00;;;;;;;6.32;5.93;;;;;;;15.10;48.74;99223.78;6143355;23;20016;-78
2021/04/28 08:35:26;;;;;;;10.23;7.85;;;;;;;15.23;47.65;99215.66;6141117;23;20013;-76
2021/04/28 08:37:54;;;;;;;10.10;7.40;;;;;;;15.34;47.46;99219.69;6162777;23;20080;-76
2021/04/28 08:40:23;;;;;;;7.30;6.60;;;;;;;15.56;47.24;99226.91;6165636;23;20047;-76
2021/04/28 08:42:48;;;;;;;10.70;6.75;;;;;;;15.69;47.03;99219.59;6143320;23;20008;-77
2021/04/28 08:45:18;;;;;;;5.97;5.68;;;;;;;15.81;46.66;99228.03;6161183;23;20000;-76
2021/04/28 08:47:46;;;;;;;6.75;6.13;;;;;;;16.03;46.36;99237.16;6142328;23;20005;-78
2021/04/28 08:50:13;;;;;;;6.90;6.43;;;;;;;16.27;45.80;99242.06;6196428;23;20097;-78
2021/04/28 08:52:39;;;;;;;7.43;6.72;;;;;;;16.43;45.12;99236.78;6167412;23;20044;-77
2021/04/28 08:55:07;;;;;;;6.68;6.15;;;;;;;16.72;45.08;99235.13;6117305;23;20016;-77
2021/04/28 08:57:36;;;;;;;6.90;6.40;;;;;;;16.93;44.29;99230.41;6193846;23;20049;-77
2021/04/28 09:00:04;;;;;;;5.97;5.57;;;;;;;17.05;44.17;99231.63;6196262;23;20096;-76
2021/04/28 09:02:30;;;;;;;7.68;6.78;;;;;;;17.04;43.56;99227.25;6164524;23;20055;-77
2021/04/28 09:05:14;;;;;;;6.28;5.88;;;;;;;17.15;43.70;99236.72;6144212;23;20037;-76
2021/04/28 09:07:44;;;;;;;5.30;5.00;;;;;;;17.12;43.39;99220.84;6163556;23;20009;-77
2021/04/28 09:10:13;;;;;;;5.07;4.57;;;;;;;17.32;43.54;99232.19;6167581;23;20092;-77
2021/04/28 09:12:49;;;;;;;6.80;5.78;;;;;;;17.38;42.49;99233.59;6162054;23;20005;-77
2021/04/28 09:15:14;;;;;;;6.82;6.40;;;;;;;17.43;42.20;99241.66;6166279;23;20068;-77
2021/04/28 09:17:55;;;;;;;7.80;7.20;;;;;;;17.39;42.00;99229.69;6168873;23;20017;-78
2021/04/28 09:20:31;;;;;;;5.15;4.75;;;;;;;17.44;42.06;99240.53;6142004;23;20012;-76
2021/04/28 09:23:05;;;;;;;7.03;6.43;;;;;;;17.56;41.83;99242.50;6166729;23;19997;-76
2021/04/28 09:25:41;;;;;;;8.00;7.40;;;;;;;17.78;41.71;99249.59;6164714;23;20340;-76
2021/04/28 09:28:39;;;;;;;6.43;6.00;;;;;;;17.89;41.14;99252.72;6167437;23;20032;-76
2021/04/28 09:31:07;;;;;;;7.97;7.25;;;;;;;17.84;40.72;99255.69;6142099;23;20019;-75
2021/04/28 09:33:55;;;;;;;6.05;5.72;;;;;;;17.96;40.68;99255.75;6166300;23;20467;-77
2021/04/28 09:36:36;;;;;;;6.40;5.82;;;;;;;17.95;40.04;99257.69;6166983;23;20036;-76
2021/04/28 09:39:10;;;;;;;5.15;4.72;;;;;;;17.88;40.37;99246.38;6165582;23;20024;-77
2021/04/28 09:41:43;;;;;;;5.07;4.78;;;;;;;17.91;39.76;99237.41;6165724;23;20012;-76
2021/04/28 09:44:28;;;;;;;;;;;;;;;;;;;;;
2021/04/28 09:47:41;;;;;;;8.30;5.78;;;;;;;18.41;39.80;99246.53;6194285;23;20021;-78
2021/04/28 09:50:07;;;;;;;7.57;4.70;;;;;;;18.39;39.63;99231.44;6166433;23;20281;-78
2021/04/28 09:52:33;;;;;;;4.57;4.20;;;;;;;18.74;39.57;99270.47;6169220;23;20419;-77
2021/04/28 09:55:26;;;;;;;6.38;3.45;;;;;;;18.92;39.57;99257.19;6193531;23;20004;-78
2021/04/28 09:57:59;;;;;;;4.70;4.32;;;;;;;19.14;38.74;99243.94;6169882;23;20440;-76
2021/04/28 10:01:00;;;;;;;;;;;;;;;;;;;;;
2021/04/28 10:03:53;;;;;;;5.47;4.97;;;;;;;19.48;37.23;99258.38;6185272;23;20093;-79
2021/04/28 10:07:04;;;;;;;5.20;4.90;;;;;;;19.47;36.97;99268.63;6147311;23;20083;-78
2021/04/28 10:09:41;;;;;;;;;;;;;;;;;;;;;
2021/04/28 10:12:13;;;;;;;5.43;4.65;;;;;;;19.12;37.23;99251.81;6191905;23;20380;-79
2021/04/28 10:14:42;;;;;;;4.70;4.38;;;;;;;19.22;37.35;99273.50;6195079;23;20009;-77
2021/04/28 10:17:20;;;;;;;;;;;;;;;;;;;;;
2021/04/28 10:20:01;;;;;;;6.78;5.50;;;;;;;18.81;37.15;99261.59;6169353;23;20036;-78
2021/04/28 10:22:39;;;;;;;;;;;;;;;;;;;;;
2021/04/28 10:25:14;;;;;;;6.10;5.60;;;;;;;18.14;37.33;99281.25;6196014;23;20024;-77
2021/04/28 10:27:41;;;;;;;5.72;5.28;;;;;;;17.80;37.59;99277.72;6145039;23;20009;-78
2021/04/28 10:30:12;;;;;;;5.00;4.60;;;;;;;17.40;38.06;99256.97;6170751;23;20009;-79
2021/04/28 10:32:49;;;;;;;5.38;5.03;;;;;;;17.36;38.56;99286.44;6197744;23;20017;-78
2021/04/28 10:35:18;;;;;;;8.27;6.35;;;;;;;16.98;38.77;99275.56;6198000;23;20001;-78
2021/04/28 10:37:57;;;;;;;7.43;6.45;;;;;;;16.71;39.63;99294.22;6172276;23;20001;-79
2021/04/28 10:40:29;;;;;;;8.25;6.82;;;;;;;16.21;40.35;99260.75;6198865;23;20005;-77
2021/04/28 10:43:20;;;;;;;8.40;7.40;;;;;;;15.85;40.71;99258.47;6169377;23;20028;-78
2021/04/28 10:45:46;;;;;;;5.88;5.47;;;;;;;15.68;41.32;99281.34;6200208;23;20006;-80
2021/04/28 10:48:22;;;;;;;;;;;;;;;;;;;;;
2021/04/28 10:50:49;;;;;;;9.68;8.02;;;;;;;15.48;42.41;99277.34;6170524;23;20032;-77
2021/04/28 10:53:20;;;;;;;7.65;6.78;;;;;;;15.45;42.79;99284.31;6171071;23;20005;-79
2021/04/28 10:55:54;;;;;;;6.55;5.90;;;;;;;15.42;42.37;99289.66;6166400;23;20005;-79
2021/04/28 10:58:26;;;;;;;5.57;5.13;;;;;;;15.43;43.23;99286.56;6169117;23;20063;-80
2021/04/28 11:00:59;;;;;;;9.73;8.35;;;;;;;15.39;42.83;99287.56;6168131;23;20092;-76
2021/04/28 11:03:34;;;;;;;7.30;6.57;;;;;;;15.31;42.44;99273.47;6169368;23;20327;-77
2021/04/28 11:06:20;;;;;;;6.45;6.10;;;;;;;15.45;42.85;99284.31;6166565;23;20328;-77
2021/04/28 11:08:54;;;;;;;;;;;;;;;15.54;43.57;99287.84;6195988;23;20324;-77
2021/04/28 11:14:22;;;;;;;7.03;6.38;;;;;;;15.35;43.39;99273.66;6193023;23;19996;-77
2021/04/28 11:16:53;;;;;;;8.70;7.75;;;;;;;15.24;43.37;99283.38;6168572;23;20004;-76
2021/04/28 11:19:27;;;;;;;9.57;7.55;;;;;;;15.10;44.30;99284.34;6192741;23;20447;-76
2021/04/28 11:22:08;;;;;;;9.48;7.60;;;;;;;15.01;44.35;99280.78;6163664;23;20001;-76
2021/04/28 11:24:57;;;;;;;14.93;7.93;;;;;;;15.01;44.83;99278.03;6165647;23;20028;-78
2021/04/28 11:27:41;;;;;;;10.48;9.20;;;;;;;15.06;45.67;99277.88;6166513;23;20001;-77
2021/04/28 11:30:38;;;;;;;8.73;7.93;;;;;;;15.05;45.59;99265.22;6169665;23;20088;-77
2021/04/28 11:33:15;;;;;;;;;;;;;;;15.28;45.67;99267.81;6167324;23;20012;-75
2021/04/28 11:35:45;;;;;;;8.40;6.88;;;;;;;15.31;45.71;99267.16;6171782;23;19911;-75
2021/04/28 11:38:14;;;;;;;9.77;8.80;;;;;;;15.38;45.19;99267.47;6194780;23;20008;-76
2021/04/28 11:41:01;;;;;;;7.55;6.00;;;;;;;15.59;45.27;99277.81;6168088;23;20028;-75
2021/04/28 11:43:29;;;;;;;7.78;7.15;;;;;;;15.61;43.57;99270.00;6161899;23;20005;-75
2021/04/28 11:46:20;;;;;;;10.55;8.35;;;;;;;15.62;43.48;99260.63;6172701;23;20035;-77
2021/04/28 11:48:49;;;;;;;7.03;6.53;;;;;;;15.49;42.97;99273.44;6196410;23;20420;-76
2021/04/28 11:51:17;;;;;;;12.82;7.25;;;;;;;15.39;42.89;99263.59;6167317;23;19997;-77
2021/04/28 11:53:48;;;;;;;7.50;6.82;;;;;;;15.29;43.40;99277.72;6166886;23;20487;-77
2021/04/28 11:56:38;;;;;;;7.85;7.25;;;;;;;15.21;43.04;99278.50;6205519;23;20075;-77
2021/04/28 11:59:07;;;;;;;9.65;7.35;;;;;;;15.18;43.04;99282.72;6151688;23;20013;-77
2021/04/28 12:01:38;;;;;;;6.72;6.43;;;;;;;15.25;43.42;99293.25;6175259;23;20081;-76
2021/04/28 12:04:09;;;;;;;8.15;7.47;;;;;;;15.39;43.61;99282.06;6168752;23;20016;-78
2021/04/28 12:06:46;;;;;;;6.43;5.93;;;;;;;15.58;43.06;99276.19;6144563;23;20417;-76
2021/04/28 12:09:26;;;;;;;5.57;5.28;;;;;;;15.92;43.03;99288.31;6191801;23;20011;-77
2021/04/28 12:12:21;;;;;;;6.47;6.05;;;;;;;16.30;41.92;99282.78;6193026;23;20080;-77
2021/04/28 12:14:51;;;;;;;7.18;6.57;;;;;;;16.34;41.70;99291.19;6166390;23;20029;-76
2021/04/28 12:17:18;;;;;;;5.75;5.45;;;;;;;16.18;41.55;99286.25;6193802;23;20084;-78
2021/04/28 12:19:45;;;;;;;7.20;6.55;;;;;;;15.81;42.30;99285.91;6192974;23;20016;-76
2021/04/28 12:22:11;;;;;;;6.40;5.95;;;;;;;15.38;43.40;99300.53;6167042;23;20032;-77
2021/04/28 12:24:46;;;;;;;6.72;4.97;;;;;;;14.97;44.24;99293.59;6166231;23;20013;-74
2021/04/28 12:27:18;;;;;;;5.07;4.57;;;;;;;14.61;45.29;99305.63;6194925;23;20009;-77
2021/04/28 12:29:58;;;;;;;5.35;5.00;;;;;;;14.16;46.31;99289.31;6194949;23;20239;-76
2021/04/28 12:32:49;;;;;;;;;;;;;;;;;;;;;
2021/04/28 12:35:18;;;;;;;8.55;7.90;;;;;;;13.51;50.15;99302.56;6195254;23;20035;-77
2021/04/28 12:38:01;;;;;;;7.93;7.07;;;;;;;13.28;50.21;99313.50;6169995;23;20063;-79
2021/04/28 12:40:53;;;;;;;5.20;4.90;;;;;;;13.08;51.14;99318.38;6167039;23;20013;-77
2021/04/28 12:43:24;;;;;;;6.82;6.10;;;;;;;12.86;51.20;99308.13;6181698;23;19992;-77
2021/04/28 12:45:52;;;;;;;6.65;6.05;;;;;;;12.71;51.63;99297.53;6193214;23;20028;-76
2021/04/28 12:48:21;;;;;;;5.95;5.43;;;;;;;12.77;52.13;99328.41;6167877;23;20315;-77
2021/04/28 12:50:51;;;;;;;5.07;4.78;;;;;;;12.70;51.98;99324.16;6169031;23;20016;-77
2021/04/28 12:53:20;;;;;;;3.70;3.50;;;;;;;12.64;51.81;99317.13;6170922;23;20332;-77
2021/04/28 12:55:47;;;;;;;4.18;3.97;;;;;;;12.75;53.04;99315.78;6170198;23;20009;-74
2021/04/28 12:58:16;;;;;;;4.70;4.40;;;;;;;12.87;53.30;99311.72;6170649;23;20009;-76
2021/04/28 13:00:45;;;;;;;5.57;5.07;;;;;;;13.28;53.11;99333.53;6149485;23;20340;-78
2021/04/28 13:03:32;;;;;;;6.38;5.95;;;;;;;13.65;53.36;99325.25;6177063;23;20016;-77
2021/04/28 13:06:06;;;;;;;5.35;4.93;;;;;;;14.12;53.11;99317.44;6171755;23;20015;-77
2021/04/28 13:08:50;;;;;;;7.15;6.65;;;;;;;14.54;52.11;99322.59;6150920;23;20049;-76
2021/04/28 13:11:20;;;;;;;5.68;5.28;;;;;;;14.86;50.73;99333.56;6144542;23;20069;-76